sensor_id;sensor_type;location;lat;lon;timestamp;pressure;altitude;pressure_sealevel;temperature;humidity
73332;BME280;61560;33.718;73.040;2023-03-14T00:00:51;94768.53;;;19.36;48.78
73332;BME280;61560;33.718;73.040;2023-03-14T00:03:18;94767.78;;;19.36;49.08
73332;BME280;61560;33.718;73.040;2023-03-14T00:05:44;94773.63;;;19.38;49.14
73332;BME280;61560;33.718;73.040;2023-03-14T00:08:12;94774.56;;;19.35;49.54
73332;BME280;61560;33.718;73.040;2023-03-14T00:10:39;94780.25;;;19.31;49.89
73332;BME280;61560;33.718;73.040;2023-03-14T00:13:06;94777.94;;;19.30;49.90
73332;BME280;61560;33.718;73.040;2023-03-14T00:15:33;94773.81;;;19.25;50.15
73332;BME280;61560;33.718;73.040;2023-03-14T00:18:01;94780.31;;;19.22;50.40
73332;BME280;61560;33.718;73.040;2023-03-14T00:20:28;94773.97;;;19.22;50.33
73332;BME280;61560;33.718;73.040;2023-03-14T00:22:54;94778.47;;;19.19;50.69
73332;BME280;61560;33.718;73.040;2023-03-14T00:25:21;94782.19;;;19.16;50.86
73332;BME280;61560;33.718;73.040;2023-03-14T00:27:51;94776.63;;;19.16;51.06
73332;BME280;61560;33.718;73.040;2023-03-14T00:30:17;94782.66;;;19.15;50.86
73332;BME280;61560;33.718;73.040;2023-03-14T00:32:46;94779.28;;;19.11;50.72
73332;BME280;61560;33.718;73.040;2023-03-14T00:35:12;94780.97;;;19.08;50.77
73332;BME280;61560;33.718;73.040;2023-03-14T00:37:39;94789.94;;;19.03;51.28
73332;BME280;61560;33.718;73.040;2023-03-14T00:40:06;94784.84;;;19.02;51.20
73332;BME280;61560;33.718;73.040;2023-03-14T00:42:34;94792.75;;;18.94;51.64
73332;BME280;61560;33.718;73.040;2023-03-14T00:48:18;94797.28;;;18.73;52.38
73332;BME280;61560;33.718;73.040;2023-03-14T00:50:46;94802.81;;;18.73;52.85
73332;BME280;61560;33.718;73.040;2023-03-14T00:53:15;94795.72;;;18.72;52.87
73332;BME280;61560;33.718;73.040;2023-03-14T00:55:42;94802.53;;;18.71;53.22
73332;BME280;61560;33.718;73.040;2023-03-14T00:58:14;94808.81;;;18.72;53.22
73332;BME280;61560;33.718;73.040;2023-03-14T01:00:43;94794.69;;;18.61;53.34
73332;BME280;61560;33.718;73.040;2023-03-14T01:03:10;94796.97;;;18.53;53.37
73332;BME280;61560;33.718;73.040;2023-03-14T01:05:37;94809.63;;;18.45;53.56
73332;BME280;61560;33.718;73.040;2023-03-14T01:08:04;94805.94;;;18.48;53.65
73332;BME280;61560;33.718;73.040;2023-03-14T01:10:37;94800.09;;;18.46;53.69
73332;BME280;61560;33.718;73.040;2023-03-14T01:13:05;94815.47;;;18.56;53.44
73332;BME280;61560;33.718;73.040;2023-03-14T01:15:38;94812.09;;;18.61;52.83
73332;BME280;61560;33.718;73.040;2023-03-14T01:18:10;94807.91;;;18.66;52.34
73332;BME280;61560;33.718;73.040;2023-03-14T01:20:37;94811.16;;;18.73;52.12
73332;BME280;61560;33.718;73.040;2023-03-14T01:23:03;94811.28;;;18.79;51.86
73332;BME280;61560;33.718;73.040;2023-03-14T01:25:30;94812.19;;;18.85;51.30
73332;BME280;61560;33.718;73.040;2023-03-14T01:27:56;94808.34;;;18.92;50.96
73332;BME280;61560;33.718;73.040;2023-03-14T01:30:23;94811.41;;;18.94;50.93
73332;BME280;61560;33.718;73.040;2023-03-14T01:32:50;94814.78;;;18.98;50.65
73332;BME280;61560;33.718;73.040;2023-03-14T01:35:16;94811.38;;;19.03;50.56
73332;BME280;61560;33.718;73.040;2023-03-14T01:37:44;94815.06;;;19.09;50.26
73332;BME280;61560;33.718;73.040;2023-03-14T01:40:15;94819.69;;;19.12;50.03
73332;BME280;61560;33.718;73.040;2023-03-14T01:42:56;94826.13;;;19.18;50.07
73332;BME280;61560;33.718;73.040;2023-03-14T01:48:33;94829.34;;;19.34;49.34
73332;BME280;61560;33.718;73.040;2023-03-14T01:51:02;94832.56;;;19.42;49.03
73332;BME280;61560;33.718;73.040;2023-03-14T01:53:29;94834.22;;;19.48;49.08
73332;BME280;61560;33.718;73.040;2023-03-14T01:55:57;94833.91;;;19.55;49.07
73332;BME280;61560;33.718;73.040;2023-03-14T01:58:26;94830.94;;;19.59;49.08
73332;BME280;61560;33.718;73.040;2023-03-14T02:00:56;94843.97;;;19.77;49.08
73332;BME280;61560;33.718;73.040;2023-03-14T02:03:25;94835.69;;;19.91;49.01
73332;BME280;61560;33.718;73.040;2023-03-14T02:05:54;94833.66;;;20.01;48.87
73332;BME280;61560;33.718;73.040;2023-03-14T02:08:23;94843.75;;;20.13;48.80
73332;BME280;61560;33.718;73.040;2023-03-14T02:10:54;94842.97;;;20.21;48.38
73332;BME280;61560;33.718;73.040;2023-03-14T02:13:42;94835.66;;;20.24;48.40
73332;BME280;61560;33.718;73.040;2023-03-14T02:16:32;94841.06;;;20.27;48.67
73332;BME280;61560;33.718;73.040;2023-03-14T02:19:31;94845.06;;;20.26;49.05
73332;BME280;61560;33.718;73.040;2023-03-14T02:22:11;94846.66;;;20.18;49.58
73332;BME280;61560;33.718;73.040;2023-03-14T02:27:33;94850.09;;;20.13;49.64
73332;BME280;61560;33.718;73.040;2023-03-14T02:32:37;94845.38;;;20.28;49.72
73332;BME280;61560;33.718;73.040;2023-03-14T02:35:23;94849.81;;;20.35;49.41
73332;BME280;61560;33.718;73.040;2023-03-14T02:40:44;94855.78;;;20.42;48.78
73332;BME280;61560;33.718;73.040;2023-03-14T02:43:11;94863.00;;;20.49;48.48
73332;BME280;61560;33.718;73.040;2023-03-14T02:45:49;94869.25;;;20.59;48.23
73332;BME280;61560;33.718;73.040;2023-03-14T02:48:26;94868.13;;;20.65;46.99
73332;BME280;61560;33.718;73.040;2023-03-14T02:50:57;94870.06;;;20.74;46.54
73332;BME280;61560;33.718;73.040;2023-03-14T02:53:29;94870.56;;;20.87;46.15
73332;BME280;61560;33.718;73.040;2023-03-14T02:56:01;94874.31;;;20.98;46.22
73332;BME280;61560;33.718;73.040;2023-03-14T02:58:29;94871.47;;;21.07;45.77
73332;BME280;61560;33.718;73.040;2023-03-14T03:01:04;94873.69;;;21.18;45.32
73332;BME280;61560;33.718;73.040;2023-03-14T03:03:31;94876.66;;;21.29;45.23
73332;BME280;61560;33.718;73.040;2023-03-14T03:05:57;94881.00;;;21.45;44.52
73332;BME280;61560;33.718;73.040;2023-03-14T03:08:29;94884.91;;;21.67;43.62
73332;BME280;61560;33.718;73.040;2023-03-14T03:10:57;94877.00;;;21.80;43.26
73332;BME280;61560;33.718;73.040;2023-03-14T03:13:26;94876.22;;;21.94;42.68
73332;BME280;61560;33.718;73.040;2023-03-14T03:15:54;94876.94;;;22.10;42.74
73332;BME280;61560;33.718;73.040;2023-03-14T03:18:22;94877.13;;;22.21;42.56
73332;BME280;61560;33.718;73.040;2023-03-14T03:20:49;94886.13;;;22.30;42.85
73332;BME280;61560;33.718;73.040;2023-03-14T03:23:15;94879.84;;;22.55;42.62
73332;BME280;61560;33.718;73.040;2023-03-14T03:25:42;94884.97;;;22.77;41.99
73332;BME280;61560;33.718;73.040;2023-03-14T03:28:09;94892.44;;;23.11;41.66
73332;BME280;61560;33.718;73.040;2023-03-14T03:30:39;94889.19;;;23.64;40.69
73332;BME280;61560;33.718;73.040;2023-03-14T03:33:06;94883.25;;;24.19;39.50
73332;BME280;61560;33.718;73.040;2023-03-14T03:35:34;94883.72;;;24.60;39.03
73332;BME280;61560;33.718;73.040;2023-03-14T03:38:01;94882.38;;;25.03;37.50
73332;BME280;61560;33.718;73.040;2023-03-14T03:40:28;94879.44;;;25.62;37.57
73332;BME280;61560;33.718;73.040;2023-03-14T03:42:57;94873.38;;;26.87;35.72
73332;BME280;61560;33.718;73.040;2023-03-14T03:45:24;94878.97;;;28.39;32.96
73332;BME280;61560;33.718;73.040;2023-03-14T03:48:16;94889.00;;;29.81;30.97
73332;BME280;61560;33.718;73.040;2023-03-14T03:50:46;94884.56;;;31.02;28.84
73332;BME280;61560;33.718;73.040;2023-03-14T03:53:16;94889.34;;;32.62;27.30
73332;BME280;61560;33.718;73.040;2023-03-14T03:55:43;94898.78;;;33.49;25.87
73332;BME280;61560;33.718;73.040;2023-03-14T03:58:10;94890.91;;;33.70;24.36
73332;BME280;61560;33.718;73.040;2023-03-14T04:00:37;94898.84;;;34.53;23.99
73332;BME280;61560;33.718;73.040;2023-03-14T04:03:05;94893.31;;;35.00;23.41
73332;BME280;61560;33.718;73.040;2023-03-14T04:05:34;94898.09;;;34.60;23.92
73332;BME280;61560;33.718;73.040;2023-03-14T04:08:06;94891.84;;;33.73;24.37
73332;BME280;61560;33.718;73.040;2023-03-14T04:10:36;94887.44;;;34.15;24.27
73332;BME280;61560;33.718;73.040;2023-03-14T04:13:19;94886.59;;;35.35;23.79
73332;BME280;61560;33.718;73.040;2023-03-14T04:15:51;94889.13;;;36.36;22.21
73332;BME280;61560;33.718;73.040;2023-03-14T04:18:23;94886.09;;;36.83;21.24
73332;BME280;61560;33.718;73.040;2023-03-14T04:20:57;94887.59;;;37.60;20.74
73332;BME280;61560;33.718;73.040;2023-03-14T04:23:37;94883.66;;;38.53;20.23
73332;BME280;61560;33.718;73.040;2023-03-14T04:26:04;94878.84;;;39.01;18.92
73332;BME280;61560;33.718;73.040;2023-03-14T04:28:32;94877.41;;;39.86;18.63
73332;BME280;61560;33.718;73.040;2023-03-14T04:30:58;94881.56;;;40.63;17.66
73332;BME280;61560;33.718;73.040;2023-03-14T04:33:26;94876.59;;;41.25;16.39
73332;BME280;61560;33.718;73.040;2023-03-14T04:35:55;94878.22;;;41.71;16.11
73332;BME280;61560;33.718;73.040;2023-03-14T04:38:22;94879.22;;;41.75;15.51
73332;BME280;61560;33.718;73.040;2023-03-14T04:40:50;94882.03;;;41.96;15.49
73332;BME280;61560;33.718;73.040;2023-03-14T04:43:19;94876.66;;;42.02;15.37
73332;BME280;61560;33.718;73.040;2023-03-14T04:45:54;94868.59;;;42.10;14.87
73332;BME280;61560;33.718;73.040;2023-03-14T04:48:21;94864.03;;;42.75;15.11
73332;BME280;61560;33.718;73.040;2023-03-14T04:50:49;94855.00;;;43.15;14.04
73332;BME280;61560;33.718;73.040;2023-03-14T04:53:17;94864.31;;;43.02;14.92
73332;BME280;61560;33.718;73.040;2023-03-14T04:55:55;94863.03;;;43.05;14.55
73332;BME280;61560;33.718;73.040;2023-03-14T04:58:24;94858.53;;;42.56;14.37
73332;BME280;61560;33.718;73.040;2023-03-14T05:00:52;94861.53;;;42.02;14.92
73332;BME280;61560;33.718;73.040;2023-03-14T05:03:38;94860.97;;;41.61;15.70
73332;BME280;61560;33.718;73.040;2023-03-14T05:06:10;94851.25;;;40.81;16.21
73332;BME280;61560;33.718;73.040;2023-03-14T05:09:00;94859.28;;;39.26;17.32
73332;BME280;61560;33.718;73.040;2023-03-14T05:11:35;94854.78;;;38.05;18.38
73332;BME280;61560;33.718;73.040;2023-03-14T05:14:25;94845.81;;;38.44;19.05
73332;BME280;61560;33.718;73.040;2023-03-14T05:16:55;94846.91;;;39.14;18.10
73332;BME280;61560;33.718;73.040;2023-03-14T05:19:47;94833.28;;;39.91;17.55
73332;BME280;61560;33.718;73.040;2023-03-14T05:22:33;94819.97;;;40.76;16.64
73332;BME280;61560;33.718;73.040;2023-03-14T05:25:19;94821.25;;;41.15;16.17
73332;BME280;61560;33.718;73.040;2023-03-14T05:27:55;94825.78;;;41.72;15.67
73332;BME280;61560;33.718;73.040;2023-03-14T05:30:46;94822.28;;;42.18;15.13
73332;BME280;61560;33.718;73.040;2023-03-14T05:33:21;94818.19;;;41.55;15.74
73332;BME280;61560;33.718;73.040;2023-03-14T05:36:03;94820.19;;;41.53;15.76
73332;BME280;61560;33.718;73.040;2023-03-14T05:38:36;94808.19;;;41.89;15.69
73332;BME280;61560;33.718;73.040;2023-03-14T05:41:15;94807.59;;;42.02;15.95
73332;BME280;61560;33.718;73.040;2023-03-14T05:44:11;94797.16;;;41.53;16.45
73332;BME280;61560;33.718;73.040;2023-03-14T05:47:04;94790.41;;;40.64;16.63
73332;BME280;61560;33.718;73.040;2023-03-14T05:49:41;94786.22;;;39.75;17.40
73332;BME280;61560;33.718;73.040;2023-03-14T05:52:26;94786.88;;;39.16;18.18
73332;BME280;61560;33.718;73.040;2023-03-14T05:55:02;94791.56;;;37.57;19.34
73332;BME280;61560;33.718;73.040;2023-03-14T05:57:49;94791.09;;;36.82;20.23
73332;BME280;61560;33.718;73.040;2023-03-14T06:00:34;94791.00;;;36.31;20.41
73332;BME280;61560;33.718;73.040;2023-03-14T06:03:17;94782.91;;;35.71;21.32
73332;BME280;61560;33.718;73.040;2023-03-14T06:05:50;94777.44;;;35.25;21.36
73332;BME280;61560;33.718;73.040;2023-03-14T06:08:19;94770.13;;;34.92;21.66
73332;BME280;61560;33.718;73.040;2023-03-14T06:10:59;94761.91;;;34.49;22.01
73332;BME280;61560;33.718;73.040;2023-03-14T06:13:46;94762.13;;;34.06;22.35
73332;BME280;61560;33.718;73.040;2023-03-14T06:16:13;94761.31;;;33.52;23.00
73332;BME280;61560;33.718;73.040;2023-03-14T06:18:40;94758.81;;;33.41;23.79
73332;BME280;61560;33.718;73.040;2023-03-14T06:21:09;94748.94;;;33.42;23.19
73332;BME280;61560;33.718;73.040;2023-03-14T06:23:37;94749.34;;;33.39;23.01
73332;BME280;61560;33.718;73.040;2023-03-14T06:26:05;94743.06;;;33.25;23.19
73332;BME280;61560;33.718;73.040;2023-03-14T06:28:32;94743.78;;;33.11;23.13
73332;BME280;61560;33.718;73.040;2023-03-14T06:31:01;94738.25;;;33.05;22.37
73332;BME280;61560;33.718;73.040;2023-03-14T06:33:34;94739.66;;;32.83;22.29
73332;BME280;61560;33.718;73.040;2023-03-14T06:36:02;94726.97;;;32.77;23.40
73332;BME280;61560;33.718;73.040;2023-03-14T06:38:29;94722.25;;;32.79;21.67
73332;BME280;61560;33.718;73.040;2023-03-14T06:41:06;94726.50;;;32.58;21.93
73332;BME280;61560;33.718;73.040;2023-03-14T06:43:38;94727.34;;;32.45;22.43
73332;BME280;61560;33.718;73.040;2023-03-14T06:46:07;94717.91;;;32.43;21.78
73332;BME280;61560;33.718;73.040;2023-03-14T06:48:36;94713.91;;;32.38;21.43
73332;BME280;61560;33.718;73.040;2023-03-14T06:51:03;94708.66;;;32.14;21.20
73332;BME280;61560;33.718;73.040;2023-03-14T06:53:29;94703.13;;;32.08;21.67
73332;BME280;61560;33.718;73.040;2023-03-14T06:55:59;94698.38;;;32.03;21.61
73332;BME280;61560;33.718;73.040;2023-03-14T06:58:27;94693.31;;;31.81;21.64
73332;BME280;61560;33.718;73.040;2023-03-14T07:00:55;94683.44;;;31.75;21.58
73332;BME280;61560;33.718;73.040;2023-03-14T07:03:26;94687.63;;;31.81;22.17
73332;BME280;61560;33.718;73.040;2023-03-14T07:05:55;94680.56;;;31.95;22.40
73332;BME280;61560;33.718;73.040;2023-03-14T07:08:21;94675.69;;;31.96;21.46
73332;BME280;61560;33.718;73.040;2023-03-14T07:10:49;94657.91;;;31.95;21.24
73332;BME280;61560;33.718;73.040;2023-03-14T07:13:17;94651.31;;;32.00;21.29
73332;BME280;61560;33.718;73.040;2023-03-14T07:15:51;94636.63;;;32.09;21.45
73332;BME280;61560;33.718;73.040;2023-03-14T07:18:18;94643.72;;;32.31;21.23
73332;BME280;61560;33.718;73.040;2023-03-14T07:20:45;94641.19;;;32.48;21.33
73332;BME280;61560;33.718;73.040;2023-03-14T07:23:14;94628.19;;;32.60;20.84
73332;BME280;61560;33.718;73.040;2023-03-14T07:25:46;94629.53;;;32.67;20.62
73332;BME280;61560;33.718;73.040;2023-03-14T07:28:14;94621.03;;;32.67;20.71
73332;BME280;61560;33.718;73.040;2023-03-14T07:30:42;94617.78;;;32.63;19.61
73332;BME280;61560;33.718;73.040;2023-03-14T07:33:16;94616.06;;;32.60;19.17
73332;BME280;61560;33.718;73.040;2023-03-14T07:35:45;94611.16;;;32.60;18.72
73332;BME280;61560;33.718;73.040;2023-03-14T07:38:12;94608.91;;;32.66;18.40
73332;BME280;61560;33.718;73.040;2023-03-14T07:41:04;94600.19;;;32.57;19.44
73332;BME280;61560;33.718;73.040;2023-03-14T07:43:34;94589.03;;;32.51;19.38
73332;BME280;61560;33.718;73.040;2023-03-14T07:46:01;94587.50;;;32.50;19.36
73332;BME280;61560;33.718;73.040;2023-03-14T07:48:27;94586.59;;;32.55;19.05
73332;BME280;61560;33.718;73.040;2023-03-14T07:50:55;94574.66;;;32.49;18.45
73332;BME280;61560;33.718;73.040;2023-03-14T07:53:23;94572.38;;;32.48;18.61
73332;BME280;61560;33.718;73.040;2023-03-14T07:55:53;94570.44;;;32.43;19.23
73332;BME280;61560;33.718;73.040;2023-03-14T07:58:21;94567.63;;;32.43;19.23
73332;BME280;61560;33.718;73.040;2023-03-14T08:00:51;94556.13;;;32.48;19.01
73332;BME280;61560;33.718;73.040;2023-03-14T08:03:18;94558.53;;;32.44;19.10
73332;BME280;61560;33.718;73.040;2023-03-14T08:05:48;94548.69;;;32.38;18.63
73332;BME280;61560;33.718;73.040;2023-03-14T08:08:17;94546.41;;;32.36;18.16
73332;BME280;61560;33.718;73.040;2023-03-14T08:10:45;94533.72;;;32.22;18.74
73332;BME280;61560;33.718;73.040;2023-03-14T08:13:13;94539.19;;;32.20;18.22
73332;BME280;61560;33.718;73.040;2023-03-14T08:15:40;94527.66;;;32.18;18.04
73332;BME280;61560;33.718;73.040;2023-03-14T08:18:07;94523.50;;;32.19;18.14
73332;BME280;61560;33.718;73.040;2023-03-14T08:20:33;94517.81;;;32.19;18.03
73332;BME280;61560;33.718;73.040;2023-03-14T08:23:01;94516.72;;;32.22;17.60
73332;BME280;61560;33.718;73.040;2023-03-14T08:25:28;94510.84;;;32.20;17.65
73332;BME280;61560;33.718;73.040;2023-03-14T08:27:55;94511.22;;;32.24;16.88
73332;BME280;61560;33.718;73.040;2023-03-14T08:30:22;94499.06;;;32.08;16.93
73332;BME280;61560;33.718;73.040;2023-03-14T08:32:49;94503.38;;;31.94;17.48
73332;BME280;61560;33.718;73.040;2023-03-14T08:35:16;94498.47;;;31.95;17.76
73332;BME280;61560;33.718;73.040;2023-03-14T08:37:43;94497.56;;;32.00;17.71
73332;BME280;61560;33.718;73.040;2023-03-14T08:40:10;94490.75;;;32.03;17.33
73332;BME280;61560;33.718;73.040;2023-03-14T08:42:38;94492.28;;;32.04;17.81
73332;BME280;61560;33.718;73.040;2023-03-14T08:45:07;94486.41;;;32.02;17.45
73332;BME280;61560;33.718;73.040;2023-03-14T08:47:35;94484.09;;;31.93;17.81
73332;BME280;61560;33.718;73.040;2023-03-14T08:50:02;94484.31;;;31.95;18.15
73332;BME280;61560;33.718;73.040;2023-03-14T08:52:31;94476.69;;;31.90;18.04
73332;BME280;61560;33.718;73.040;2023-03-14T08:54:58;94480.09;;;31.88;17.91
73332;BME280;61560;33.718;73.040;2023-03-14T08:57:25;94471.59;;;31.88;17.45
73332;BME280;61560;33.718;73.040;2023-03-14T08:59:56;94473.84;;;31.90;16.67
73332;BME280;61560;33.718;73.040;2023-03-14T09:02:23;94459.09;;;31.84;17.11
73332;BME280;61560;33.718;73.040;2023-03-14T09:04:51;94464.38;;;31.80;16.54
73332;BME280;61560;33.718;73.040;2023-03-14T09:07:19;94455.66;;;31.70;16.44
73332;BME280;61560;33.718;73.040;2023-03-14T09:09:45;94461.69;;;31.67;16.98
73332;BME280;61560;33.718;73.040;2023-03-14T09:12:13;94459.22;;;31.63;16.61
73332;BME280;61560;33.718;73.040;2023-03-14T09:14:39;94445.41;;;31.60;16.43
73332;BME280;61560;33.718;73.040;2023-03-14T09:17:06;94451.66;;;31.58;16.32
73332;BME280;61560;33.718;73.040;2023-03-14T09:19:33;94452.75;;;31.55;14.83
73332;BME280;61560;33.718;73.040;2023-03-14T09:22:00;94444.06;;;31.53;15.56
73332;BME280;61560;33.718;73.040;2023-03-14T09:24:26;94448.03;;;31.50;17.16
73332;BME280;61560;33.718;73.040;2023-03-14T09:26:55;94442.16;;;31.48;18.31
73332;BME280;61560;33.718;73.040;2023-03-14T09:29:22;94442.31;;;31.42;19.25
73332;BME280;61560;33.718;73.040;2023-03-14T09:31:51;94437.56;;;31.37;19.83
73332;BME280;61560;33.718;73.040;2023-03-14T09:34:17;94443.19;;;31.30;20.77
73332;BME280;61560;33.718;73.040;2023-03-14T09:36:45;94435.41;;;31.23;21.15
73332;BME280;61560;33.718;73.040;2023-03-14T09:39:12;94433.34;;;31.23;20.91
73332;BME280;61560;33.718;73.040;2023-03-14T09:41:44;94433.53;;;31.25;21.04
73332;BME280;61560;33.718;73.040;2023-03-14T09:44:35;94438.44;;;31.25;21.27
73332;BME280;61560;33.718;73.040;2023-03-14T09:47:04;94428.78;;;31.20;21.20
73332;BME280;61560;33.718;73.040;2023-03-14T09:49:35;94425.72;;;31.11;20.79
73332;BME280;61560;33.718;73.040;2023-03-14T09:52:29;94440.97;;;31.08;21.00
73332;BME280;61560;33.718;73.040;2023-03-14T09:57:28;94430.88;;;30.92;22.18
73332;BME280;61560;33.718;73.040;2023-03-14T09:59:59;94433.50;;;30.90;21.41
73332;BME280;61560;33.718;73.040;2023-03-14T10:02:35;94438.63;;;30.91;22.08
73332;BME280;61560;33.718;73.040;2023-03-14T10:05:07;94416.13;;;30.86;21.56
73332;BME280;61560;33.718;73.040;2023-03-14T10:07:35;94431.28;;;30.75;21.86
73332;BME280;61560;33.718;73.040;2023-03-14T10:10:13;94425.22;;;30.71;21.63
73332;BME280;61560;33.718;73.040;2023-03-14T10:12:46;94427.78;;;30.61;22.00
73332;BME280;61560;33.718;73.040;2023-03-14T10:15:15;94422.63;;;30.52;21.92
73332;BME280;61560;33.718;73.040;2023-03-14T10:17:51;94421.81;;;30.44;22.54
73332;BME280;61560;33.718;73.040;2023-03-14T10:20:33;94425.53;;;30.39;22.56
73332;BME280;61560;33.718;73.040;2023-03-14T10:23:02;94411.75;;;30.36;23.16
73332;BME280;61560;33.718;73.040;2023-03-14T10:25:35;94409.34;;;30.40;22.69
73332;BME280;61560;33.718;73.040;2023-03-14T10:28:03;94405.06;;;30.46;22.99
73332;BME280;61560;33.718;73.040;2023-03-14T10:30:48;94398.50;;;30.51;22.70
73332;BME280;61560;33.718;73.040;2023-03-14T10:33:35;94401.94;;;30.57;23.25
73332;BME280;61560;33.718;73.040;2023-03-14T10:36:17;94393.72;;;30.67;22.73
73332;BME280;61560;33.718;73.040;2023-03-14T10:38:45;94403.59;;;30.81;22.24
73332;BME280;61560;33.718;73.040;2023-03-14T10:41:25;94390.16;;;30.95;22.30
73332;BME280;61560;33.718;73.040;2023-03-14T10:44:00;94386.41;;;31.00;21.82
73332;BME280;61560;33.718;73.040;2023-03-14T10:46:30;94387.38;;;31.02;22.21
73332;BME280;61560;33.718;73.040;2023-03-14T10:49:28;94382.78;;;30.92;22.54
73332;BME280;61560;33.718;73.040;2023-03-14T10:52:02;94388.81;;;30.88;22.38
73332;BME280;61560;33.718;73.040;2023-03-14T10:54:31;94380.97;;;30.81;22.68
73332;BME280;61560;33.718;73.040;2023-03-14T10:56:59;94385.50;;;30.77;22.36
73332;BME280;61560;33.718;73.040;2023-03-14T10:59:35;94383.53;;;30.64;22.05
73332;BME280;61560;33.718;73.040;2023-03-14T11:05:01;94374.16;;;30.48;21.78
73332;BME280;61560;33.718;73.040;2023-03-14T11:10:03;94374.25;;;30.35;22.17
73332;BME280;61560;33.718;73.040;2023-03-14T11:15:21;94370.09;;;30.16;22.17
73332;BME280;61560;33.718;73.040;2023-03-14T11:21:08;94372.72;;;29.93;22.48
73332;BME280;61560;33.718;73.040;2023-03-14T11:27:32;94366.94;;;29.78;22.59
73332;BME280;61560;33.718;73.040;2023-03-14T11:32:46;94365.66;;;29.66;22.88
73332;BME280;61560;33.718;73.040;2023-03-14T11:35:22;94359.69;;;29.56;22.91
73332;BME280;61560;33.718;73.040;2023-03-14T11:38:15;94362.66;;;29.51;23.66
73332;BME280;61560;33.718;73.040;2023-03-14T11:40:48;94357.38;;;29.47;23.47
73332;BME280;61560;33.718;73.040;2023-03-14T11:43:28;94360.72;;;29.46;22.73
73332;BME280;61560;33.718;73.040;2023-03-14T11:46:01;94365.94;;;29.42;22.80
73332;BME280;61560;33.718;73.040;2023-03-14T11:48:43;94363.88;;;29.42;22.89
73332;BME280;61560;33.718;73.040;2023-03-14T11:51:20;94354.84;;;29.44;22.35
73332;BME280;61560;33.718;73.040;2023-03-14T11:56:57;94351.97;;;29.36;22.65
73332;BME280;61560;33.718;73.040;2023-03-14T12:02:02;94349.19;;;29.10;23.07
73332;BME280;61560;33.718;73.040;2023-03-14T12:07:39;94355.28;;;28.88;22.89
73332;BME280;61560;33.718;73.040;2023-03-14T12:10:10;94352.91;;;28.79;23.23
73332;BME280;61560;33.718;73.040;2023-03-14T12:12:36;94355.84;;;28.73;23.10
73332;BME280;61560;33.718;73.040;2023-03-14T12:15:05;94354.22;;;28.65;23.22
73332;BME280;61560;33.718;73.040;2023-03-14T12:17:41;94357.66;;;28.58;22.75
73332;BME280;61560;33.718;73.040;2023-03-14T12:20:18;94355.16;;;28.54;23.33
73332;BME280;61560;33.718;73.040;2023-03-14T12:22:51;94349.63;;;28.49;23.03
73332;BME280;61560;33.718;73.040;2023-03-14T12:25:26;94350.47;;;28.44;22.72
73332;BME280;61560;33.718;73.040;2023-03-14T12:35:38;94349.22;;;28.00;24.34
73332;BME280;61560;33.718;73.040;2023-03-14T12:41:46;94354.19;;;27.75;25.20
73332;BME280;61560;33.718;73.040;2023-03-14T12:47:40;94362.94;;;27.59;25.41
73332;BME280;61560;33.718;73.040;2023-03-14T12:50:16;94362.75;;;27.51;25.47
73332;BME280;61560;33.718;73.040;2023-03-14T12:55:29;94366.50;;;27.40;25.43
73332;BME280;61560;33.718;73.040;2023-03-14T12:58:20;94366.31;;;27.33;26.00
73332;BME280;61560;33.718;73.040;2023-03-14T14:03:10;94420.84;;;24.65;29.20
73332;BME280;61560;33.718;73.040;2023-03-14T14:05:38;94427.19;;;24.71;28.70
73332;BME280;61560;33.718;73.040;2023-03-14T14:08:11;94429.47;;;24.72;29.66
73332;BME280;61560;33.718;73.040;2023-03-14T14:10:39;94431.50;;;24.66;29.68
73332;BME280;61560;33.718;73.040;2023-03-14T14:13:09;94437.38;;;24.63;29.79
73332;BME280;61560;33.718;73.040;2023-03-14T14:15:41;94431.53;;;24.61;30.28
73332;BME280;61560;33.718;73.040;2023-03-14T14:18:13;94438.91;;;24.58;29.93
73332;BME280;61560;33.718;73.040;2023-03-14T14:20:44;94438.66;;;24.56;29.80
73332;BME280;61560;33.718;73.040;2023-03-14T14:23:14;94438.41;;;24.54;30.03
73332;BME280;61560;33.718;73.040;2023-03-14T14:25:43;94448.59;;;24.52;29.59
73332;BME280;61560;33.718;73.040;2023-03-14T14:28:28;94436.63;;;24.51;29.42
73332;BME280;61560;33.718;73.040;2023-03-14T14:33:59;94435.88;;;24.45;29.88
73332;BME280;61560;33.718;73.040;2023-03-14T14:39:17;94436.16;;;24.36;29.58
73332;BME280;61560;33.718;73.040;2023-03-14T14:41:48;94443.31;;;24.31;30.08
73332;BME280;61560;33.718;73.040;2023-03-14T14:44:28;94439.47;;;24.29;30.39
73332;BME280;61560;33.718;73.040;2023-03-14T14:46:56;94438.97;;;24.25;30.25
73332;BME280;61560;33.718;73.040;2023-03-14T14:49:32;94436.44;;;24.21;30.22
73332;BME280;61560;33.718;73.040;2023-03-14T14:52:08;94445.31;;;24.20;30.56
73332;BME280;61560;33.718;73.040;2023-03-14T14:55:00;94447.38;;;24.14;30.31
73332;BME280;61560;33.718;73.040;2023-03-14T14:57:32;94450.94;;;24.09;30.47
73332;BME280;61560;33.718;73.040;2023-03-14T15:00:07;94451.19;;;24.11;30.32
73332;BME280;61560;33.718;73.040;2023-03-14T15:02:46;94454.78;;;24.11;30.09
73332;BME280;61560;33.718;73.040;2023-03-14T15:05:19;94460.13;;;24.09;30.40
73332;BME280;61560;33.718;73.040;2023-03-14T15:07:49;94456.28;;;24.07;30.08
73332;BME280;61560;33.718;73.040;2023-03-14T15:10:19;94448.66;;;24.07;30.04
73332;BME280;61560;33.718;73.040;2023-03-14T15:12:46;94453.25;;;24.05;29.79
73332;BME280;61560;33.718;73.040;2023-03-14T15:15:18;94448.41;;;24.05;29.63
73332;BME280;61560;33.718;73.040;2023-03-14T15:17:46;94446.34;;;24.06;30.05
73332;BME280;61560;33.718;73.040;2023-03-14T15:20:16;94446.13;;;24.09;29.63
73332;BME280;61560;33.718;73.040;2023-03-14T15:22:44;94451.47;;;24.07;29.05